createdAt,value
2022-11-22T01:20:19.147Z,1.61
2022-11-22T01:22:45.765Z,1.62
2022-11-22T01:25:12.360Z,1.64
2022-11-22T01:27:38.975Z,1.57
2022-11-22T01:30:06.239Z,1.63
2022-11-22T01:32:32.834Z,1.68
2022-11-22T01:34:59.428Z,1.69
2022-11-22T01:37:26.019Z,1.65
2022-11-22T01:39:52.620Z,1.75
2022-11-22T01:42:21.330Z,1.70
2022-11-22T01:44:48.417Z,1.76
2022-11-22T01:47:20.041Z,1.83
2022-11-22T01:49:52.440Z,1.92
2022-11-22T01:52:21.395Z,1.90
2022-11-22T01:54:53.366Z,1.95
2022-11-22T01:57:24.035Z,1.92
2022-11-22T02:00:03.950Z,1.90
2022-11-22T02:02:33.546Z,1.90
2022-11-22T02:05:03.209Z,1.95
2022-11-22T02:07:53.584Z,2.06
2022-11-22T02:10:23.415Z,1.98
2022-11-22T02:12:51.983Z,1.96
2022-11-22T02:15:18.936Z,1.91
2022-11-22T02:17:45.560Z,1.93
2022-11-22T02:20:12.564Z,1.97
2022-11-22T02:22:56.001Z,2.06
2022-11-22T02:25:47.523Z,2.10
2022-11-22T02:28:14.333Z,2.12
2022-11-22T02:30:41.541Z,2.10
2022-11-22T02:33:09.271Z,2.11
2022-11-22T02:35:35.939Z,2.20
2022-11-22T02:38:09.009Z,2.16
2022-11-22T02:40:45.628Z,2.15
2022-11-22T02:43:16.057Z,2.11
2022-11-22T02:45:42.788Z,2.15
2022-11-22T02:48:12.307Z,2.11
2022-11-22T02:50:39.496Z,1.98
2022-11-22T02:53:06.960Z,1.97
2022-11-22T02:55:33.622Z,1.98
2022-11-22T02:58:00.275Z,2.00
2022-11-22T03:00:26.879Z,1.98
2022-11-22T03:02:53.571Z,1.94
2022-11-22T03:05:20.191Z,1.79
2022-11-22T03:07:46.855Z,1.83
2022-11-22T03:10:14.196Z,1.89
2022-11-22T03:12:41.621Z,1.93
2022-11-22T03:15:16.281Z,1.92
2022-11-22T03:17:43.139Z,1.79
2022-11-22T03:20:10.011Z,1.83
2022-11-22T03:22:36.607Z,1.88
2022-11-22T03:25:03.321Z,1.95
2022-11-22T03:44:10.036Z,1.88
2022-11-22T03:46:36.862Z,1.75
2022-11-22T03:49:03.577Z,1.73
2022-11-22T03:55:43.445Z,1.68
2022-11-22T03:58:10.259Z,1.73
2022-11-22T04:00:37.046Z,1.77
2022-11-22T04:03:03.721Z,1.75
2022-11-22T04:05:30.464Z,1.86
2022-11-22T04:07:59.907Z,1.90
2022-11-22T04:10:26.944Z,2.01
2022-11-22T04:12:58.325Z,2.05
2022-11-22T04:15:26.091Z,2.10
2022-11-22T04:17:53.025Z,2.06
2022-11-22T04:20:48.704Z,2.16
2022-11-22T04:23:21.438Z,2.31
2022-11-22T04:25:53.746Z,2.38
2022-11-22T04:28:35.249Z,2.40
2022-11-22T04:31:29.185Z,2.41
2022-11-22T04:34:00.197Z,2.32
2022-11-22T04:36:32.619Z,2.36
2022-11-22T04:42:08.416Z,2.36
2022-11-22T04:44:51.061Z,2.35
2022-11-22T04:47:38.136Z,2.46
2022-11-22T04:50:29.032Z,2.43
2022-11-22T04:52:57.934Z,2.41
2022-11-22T04:55:30.181Z,2.40
2022-11-22T04:58:00.147Z,2.44
2022-11-22T05:00:30.589Z,2.35
2022-11-22T05:02:59.124Z,2.29
2022-11-22T05:05:26.988Z,2.38
2022-11-22T05:07:54.465Z,2.28
2022-11-22T05:10:26.479Z,2.33
2022-11-22T05:12:54.604Z,2.28
2022-11-22T05:15:31.434Z,2.36
2022-11-22T05:18:02.326Z,2.35
2022-11-22T06:20:13.260Z,2.30
2022-11-22T06:22:39.909Z,2.34
2022-11-22T06:25:07.400Z,2.37
2022-11-22T06:27:33.998Z,2.46
2022-11-22T06:30:00.572Z,2.56
2022-11-22T06:32:27.177Z,2.52
2022-11-22T06:34:53.744Z,2.54
2022-11-22T06:37:20.313Z,2.66
2022-11-22T06:39:46.902Z,2.65
2022-11-22T06:42:13.596Z,2.79
2022-11-22T06:44:40.240Z,2.81
2022-11-22T06:47:07.140Z,2.95
2022-11-22T06:49:33.761Z,3.02
2022-11-22T06:52:00.441Z,3.08
2022-11-22T06:54:27.066Z,3.14
2022-11-22T06:56:53.693Z,3.20
2022-11-22T06:59:20.466Z,3.29
2022-11-22T07:01:47.343Z,3.35
2022-11-22T07:04:14.280Z,3.51
2022-11-22T07:06:41.034Z,3.57
2022-11-22T07:09:09.782Z,3.57
2022-11-22T07:11:37.154Z,3.75
2022-11-22T07:14:08.294Z,3.76
2022-11-22T07:16:37.489Z,3.92
2022-11-22T07:19:04.943Z,3.96
2022-11-22T07:21:32.518Z,3.98
2022-11-22T07:23:59.196Z,4.06
2022-11-22T07:26:26.723Z,4.15
2022-11-22T07:28:53.503Z,4.12
2022-11-22T07:31:20.389Z,4.23
2022-11-22T07:33:47.287Z,4.33
2022-11-22T07:36:19.193Z,4.38
2022-11-22T07:38:47.896Z,4.42
2022-11-22T07:41:15.217Z,4.52
2022-11-22T07:43:42.678Z,4.60
2022-11-22T07:46:33.491Z,4.69
2022-11-22T07:49:01.928Z,4.67
2022-11-22T07:51:29.151Z,4.80
2022-11-22T07:53:56.638Z,4.91
2022-11-22T07:56:23.595Z,4.94
2022-11-22T07:58:50.732Z,5.02
2022-11-22T08:01:21.681Z,4.98
2022-11-22T08:03:48.747Z,5.07
2022-11-22T08:06:17.074Z,5.14
2022-11-22T08:08:44.460Z,5.29
2022-11-22T08:11:12.034Z,5.35
2022-11-22T08:13:39.241Z,5.44
2022-11-22T08:16:09.098Z,5.57
2022-11-22T08:18:37.932Z,5.66
2022-11-22T08:21:12.583Z,5.73
2022-11-22T08:23:40.649Z,5.82
2022-11-22T08:26:08.898Z,5.94
2022-11-22T08:28:36.162Z,6.05
2022-11-22T08:31:06.040Z,6.08
2022-11-22T08:33:32.826Z,6.17
2022-11-22T08:35:59.866Z,6.12
2022-11-22T08:38:27.328Z,6.22
2022-11-22T08:40:56.066Z,6.28
2022-11-22T08:43:26.670Z,6.30
2022-11-22T08:45:55.831Z,6.27
2022-11-22T08:48:22.788Z,6.35
2022-11-22T08:50:57.668Z,6.37
2022-11-22T08:53:25.571Z,6.52
2022-11-22T08:55:52.300Z,6.43
2022-11-22T08:58:19.023Z,6.49
2022-11-22T09:00:45.666Z,6.36
2022-11-22T09:03:12.369Z,6.35
2022-11-22T09:08:25.813Z,6.23
2022-11-22T09:10:54.989Z,6.12
2022-11-22T09:13:24.175Z,6.06
2022-11-22T09:15:51.012Z,6.02
2022-11-22T09:18:19.014Z,6.01
2022-11-22T09:20:49.789Z,5.97
2022-11-22T09:23:16.999Z,6.02
2022-11-22T09:25:44.940Z,5.99
2022-11-22T09:28:11.678Z,5.95
2022-11-22T09:30:38.235Z,6.15
2022-11-22T09:33:04.767Z,6.13
2022-11-22T09:35:31.395Z,6.18
2022-11-22T09:37:58.237Z,6.31
2022-11-22T09:40:24.873Z,6.34
2022-11-22T09:42:57.407Z,6.54
2022-11-22T09:45:36.585Z,6.69
2022-11-22T09:48:24.804Z,6.80
2022-11-22T09:51:06.733Z,6.98
2022-11-22T09:53:38.540Z,7.09
2022-11-22T09:56:11.356Z,7.10
2022-11-22T09:58:51.579Z,7.19
2022-11-22T10:01:28.115Z,7.19
2022-11-22T10:04:01.486Z,7.19
2022-11-22T10:06:32.152Z,6.71
2022-11-22T10:09:22.880Z,6.79
2022-11-22T10:11:55.017Z,6.77
2022-11-22T10:14:30.582Z,6.69
2022-11-22T10:17:32.509Z,6.61
2022-11-22T10:20:06.732Z,6.81
2022-11-22T10:22:47.482Z,6.81
2022-11-22T10:25:18.073Z,6.91
2022-11-22T10:27:49.132Z,6.94
2022-11-22T10:30:18.247Z,6.84
2022-11-22T10:32:56.508Z,6.85
2022-11-22T10:35:35.723Z,6.83
2022-11-22T10:41:31.331Z,6.85
2022-11-22T10:44:21.365Z,6.83
2022-11-22T10:46:57.326Z,6.84
2022-11-22T10:49:34.631Z,6.82
2022-11-22T10:52:28.963Z,6.85
2022-11-22T10:55:19.346Z,6.90
2022-11-22T10:57:59.948Z,7.00
2022-11-22T11:00:29.152Z,7.08
2022-11-22T11:03:01.923Z,7.01
2022-11-22T11:05:37.286Z,6.96
2022-11-22T11:08:36.809Z,6.96
2022-11-22T11:10:51.471Z,6.87
2022-11-22T11:13:24.588Z,6.91
2022-11-22T11:15:56.254Z,6.77
2022-11-22T11:18:49.230Z,6.87
2022-11-22T11:21:15.974Z,6.90
2022-11-22T11:23:42.678Z,6.89
2022-11-22T11:26:27.668Z,6.97
2022-11-22T11:29:16.004Z,6.97
2022-11-22T11:31:44.742Z,7.02
2022-11-22T11:34:29.931Z,7.02
2022-11-22T11:36:58.125Z,7.12
2022-11-22T11:39:32.241Z,7.30
2022-11-22T11:41:59.692Z,7.42
2022-11-22T11:44:37.480Z,7.61
2022-11-22T11:47:04.926Z,7.67
2022-11-22T11:49:33.672Z,7.62
2022-11-22T11:52:28.719Z,7.56
2022-11-22T11:55:00.818Z,7.47
2022-11-22T11:57:29.716Z,7.36
2022-11-22T11:59:59.199Z,7.26
2022-11-22T12:02:39.823Z,7.40
2022-11-22T12:05:24.682Z,7.56
2022-11-22T12:07:51.436Z,7.53
2022-11-22T12:10:56.477Z,7.37
2022-11-22T12:14:04.601Z,7.33
2022-11-22T12:16:37.832Z,7.32
2022-11-22T12:19:34.974Z,7.38
2022-11-22T12:22:48.305Z,7.41
2022-11-22T12:25:35.381Z,7.45
2022-11-22T12:28:12.230Z,7.44
2022-11-22T12:30:41.262Z,7.38
2022-11-22T12:33:10.633Z,7.36
2022-11-22T12:35:43.281Z,7.28
2022-11-22T12:38:30.290Z,7.23
2022-11-22T12:41:00.185Z,7.16
2022-11-22T12:43:30.835Z,6.98
2022-11-22T12:46:06.368Z,6.96
2022-11-22T12:48:47.220Z,6.88
2022-11-22T12:51:21.429Z,6.80
2022-11-22T12:53:48.461Z,6.87
2022-11-22T12:56:22.779Z,6.89
2022-11-22T12:58:59.868Z,6.79
2022-11-22T13:01:34.723Z,6.67
2022-11-22T13:04:10.616Z,6.72
2022-11-22T13:07:06.603Z,6.83
2022-11-22T13:09:35.860Z,6.94
2022-11-22T13:12:17.851Z,6.96
2022-11-22T13:14:55.113Z,6.90
2022-11-22T13:17:26.258Z,6.91
2022-11-22T13:19:57.245Z,6.86
2022-11-22T13:22:42.467Z,6.96
2022-11-22T13:25:27.636Z,7.04
2022-11-22T13:27:54.892Z,7.04
2022-11-22T13:30:23.791Z,6.94
2022-11-22T13:32:53.015Z,6.86
2022-11-22T13:35:32.187Z,6.94
2022-11-22T13:38:02.674Z,6.98
2022-11-22T13:40:42.139Z,6.96
2022-11-22T13:43:15.534Z,6.88
2022-11-22T13:45:50.030Z,6.83
2022-11-22T13:48:41.403Z,6.82
2022-11-22T13:51:13.745Z,6.83
2022-11-22T13:53:44.987Z,6.85
2022-11-22T13:56:20.438Z,6.95
2022-11-22T13:58:57.427Z,6.97
2022-11-22T14:01:33.936Z,6.94
2022-11-22T14:04:16.015Z,6.88
2022-11-22T14:06:49.902Z,6.79
2022-11-22T14:09:54.307Z,6.58
2022-11-22T14:12:59.880Z,6.44
2022-11-22T14:15:51.181Z,6.36
2022-11-22T14:18:26.439Z,6.32
2022-11-22T14:21:09.017Z,6.23
2022-11-22T14:24:10.000Z,6.17
2022-11-22T14:26:55.360Z,6.09
2022-11-22T14:29:37.718Z,5.99
2022-11-22T14:32:21.978Z,5.98
2022-11-22T14:35:22.368Z,5.89
2022-11-22T14:37:57.409Z,5.89
2022-11-22T14:40:38.395Z,5.87
2022-11-22T14:43:19.341Z,5.74
2022-11-22T14:45:50.362Z,5.70
2022-11-22T14:48:19.657Z,5.64
2022-11-22T14:50:59.862Z,5.63
2022-11-22T14:53:39.373Z,5.53
2022-11-22T14:56:12.746Z,5.49
2022-11-22T14:58:42.881Z,5.40
2022-11-22T15:01:31.270Z,5.40
2022-11-22T15:09:21.756Z,5.32
2022-11-22T15:09:23.227Z,5.30
2022-11-22T15:10:39.444Z,5.20
2022-11-22T15:13:30.543Z,5.09
2022-11-22T15:59:16.600Z,4.54
2022-11-22T16:01:48.006Z,4.61
2022-11-22T16:04:39.310Z,4.51
2022-11-22T16:10:27.732Z,4.53
2022-11-22T16:17:37.922Z,4.55
2022-11-22T16:20:26.350Z,4.54
2022-11-22T16:23:03.941Z,4.50
2022-11-22T16:25:37.418Z,4.54
